createdAt,value
2019-02-12T00:01:01.533Z,102098.06
2019-02-12T00:03:28.027Z,102099.28
2019-02-12T00:05:54.545Z,102096.42
2019-02-12T00:08:21.044Z,102096.76
2019-02-12T00:10:47.581Z,102098.91
2019-02-12T00:13:14.205Z,102104.95
2019-02-12T00:15:40.834Z,102109.55
2019-02-12T00:18:07.445Z,102110.80
2019-02-12T00:20:34.876Z,102103.08
2019-02-12T00:23:02.948Z,102105.31
2019-02-12T00:25:29.444Z,102102.67
2019-02-12T00:27:55.904Z,102105.95
2019-02-12T00:30:22.418Z,102108.41
2019-02-12T00:32:49.354Z,102113.48
2019-02-12T00:35:15.821Z,102117.53
2019-02-12T00:37:42.290Z,102121.66
2019-02-12T00:40:08.797Z,102119.34
2019-02-12T00:42:35.372Z,102115.31
2019-02-12T00:45:02.086Z,102119.70
2019-02-12T00:47:28.701Z,102116.77
2019-02-12T00:49:55.330Z,102116.59
2019-02-12T00:52:21.896Z,102117.41
2019-02-12T00:54:48.534Z,102121.51
2019-02-12T00:57:15.005Z,102122.59
2019-02-12T00:59:41.604Z,102127.69
2019-02-12T01:02:08.204Z,102125.23
2019-02-12T01:04:34.820Z,102123.79
2019-02-12T01:07:01.440Z,102128.97
2019-02-12T01:09:27.917Z,102126.95
2019-02-12T01:11:54.916Z,102083.66
2019-02-12T01:14:21.808Z,102126.80
2019-02-12T01:16:48.752Z,102128.72
2019-02-12T01:19:15.691Z,102124.51
2019-02-12T01:21:42.631Z,102130.44
2019-02-12T01:24:09.644Z,102088.46
2019-02-12T01:26:36.562Z,102132.61
2019-02-12T01:29:03.471Z,102137.98
2019-02-12T01:31:30.404Z,102148.28
2019-02-12T01:33:57.300Z,102146.30
2019-02-12T01:36:24.238Z,102143.17
2019-02-12T01:38:51.176Z,102152.64
2019-02-12T01:41:18.101Z,102154.34
2019-02-12T01:43:45.010Z,102160.14
2019-02-12T01:46:11.939Z,102152.99
2019-02-12T01:48:38.840Z,102157.84
2019-02-12T01:51:05.813Z,102156.45
2019-02-12T01:53:32.708Z,102157.92
2019-02-12T01:55:59.646Z,102163.36
2019-02-12T01:58:26.570Z,102163.42
2019-02-12T02:00:53.537Z,102161.47
2019-02-12T02:03:20.443Z,102164.72
2019-02-12T02:05:47.397Z,102169.31
2019-02-12T02:08:14.296Z,102174.25
2019-02-12T02:10:41.242Z,102178.05
2019-02-12T02:13:08.185Z,102176.91
2019-02-12T02:15:35.135Z,102174.91
2019-02-12T02:18:02.054Z,102188.20
2019-02-12T02:20:31.030Z,102181.73
2019-02-12T02:22:57.955Z,102185.87
2019-02-12T02:25:24.861Z,102181.73
2019-02-12T02:27:51.834Z,102179.06
2019-02-12T02:30:18.748Z,102181.06
2019-02-12T02:32:45.695Z,102184.52
2019-02-12T02:35:12.608Z,102185.43
2019-02-12T02:37:39.560Z,102187.75
2019-02-12T02:40:07.045Z,102197.36
2019-02-12T02:42:33.984Z,102188.12
2019-02-12T02:45:00.957Z,102190.61
2019-02-12T02:47:27.912Z,102184.00
2019-02-12T02:49:54.859Z,102187.38
2019-02-12T02:52:21.805Z,102185.16
2019-02-12T02:54:48.696Z,102184.08
2019-02-12T02:57:15.641Z,102184.26
2019-02-12T02:59:42.546Z,102183.92
2019-02-12T03:02:09.485Z,102187.52
2019-02-12T03:04:36.443Z,102190.81
2019-02-12T03:07:03.435Z,102187.52
2019-02-12T03:09:30.652Z,102189.15
2019-02-12T03:11:57.621Z,102176.89
2019-02-12T03:14:24.550Z,102179.75
2019-02-12T03:16:51.498Z,102175.44
2019-02-12T03:19:18.417Z,102178.69
2019-02-12T03:21:45.309Z,102179.06
2019-02-12T03:24:12.269Z,102188.73
2019-02-12T03:26:39.164Z,102197.88
2019-02-12T03:29:06.149Z,102193.38
2019-02-12T03:31:33.086Z,102191.16
2019-02-12T03:34:00.149Z,102188.20
2019-02-12T03:36:27.025Z,102185.11
2019-02-12T03:38:53.968Z,102195.97
2019-02-12T03:41:20.879Z,102195.74
2019-02-12T03:43:47.842Z,102194.17
2019-02-12T03:46:14.766Z,102192.34
2019-02-12T03:48:41.721Z,102191.14
2019-02-12T03:51:08.630Z,102197.02
2019-02-12T03:53:35.571Z,102194.66
2019-02-12T03:56:02.476Z,102197.62
2019-02-12T03:58:29.411Z,102196.65
2019-02-12T04:00:56.363Z,102202.61
2019-02-12T04:03:23.403Z,102206.41
2019-02-12T04:05:50.320Z,102211.59
2019-02-12T04:08:17.284Z,102201.91
2019-02-12T04:10:47.036Z,102204.16
2019-02-12T04:13:14.045Z,102204.10
2019-02-12T04:15:41.018Z,102206.32
2019-02-12T04:18:08.032Z,102197.80
2019-02-12T04:20:34.925Z,102194.70
2019-02-12T04:23:01.915Z,102190.98
2019-02-12T04:25:28.871Z,102202.21
2019-02-12T04:27:55.825Z,102204.02
2019-02-12T04:30:22.727Z,102201.06
2019-02-12T04:32:49.715Z,102201.42
2019-02-12T04:35:16.641Z,102206.09
2019-02-12T04:37:43.544Z,102202.64
2019-02-12T04:40:10.619Z,102212.39
2019-02-12T04:42:37.525Z,102208.98
2019-02-12T04:45:05.199Z,102211.50
2019-02-12T04:47:32.115Z,102214.53
2019-02-12T04:49:59.094Z,102215.66
2019-02-12T04:52:31.912Z,102218.51
2019-02-12T04:54:54.857Z,102228.09
2019-02-12T04:57:21.790Z,102222.05
2019-02-12T04:59:48.722Z,102231.95
2019-02-12T05:02:15.738Z,102227.54
2019-02-12T05:04:42.686Z,102224.27
2019-02-12T05:07:09.687Z,102230.47
2019-02-12T05:09:38.443Z,102237.50
2019-02-12T05:12:05.859Z,102232.46
2019-02-12T05:14:32.834Z,102239.94
2019-02-12T05:16:59.750Z,102242.36
2019-02-12T05:19:26.704Z,102247.00
2019-02-12T05:21:53.614Z,102241.94
2019-02-12T05:24:20.616Z,102237.19
2019-02-12T05:26:47.529Z,102237.67
2019-02-12T05:29:14.485Z,102237.86
2019-02-12T05:31:41.404Z,102239.13
2019-02-12T05:34:08.377Z,102243.97
2019-02-12T05:36:35.311Z,102252.06
2019-02-12T05:39:02.862Z,102241.20
2019-02-12T05:41:29.773Z,102244.36
2019-02-12T05:43:56.730Z,102258.44
2019-02-12T05:46:23.627Z,102263.42
2019-02-12T05:48:50.581Z,102261.08
2019-02-12T05:51:17.535Z,102260.89
2019-02-12T05:53:44.430Z,102268.18
2019-02-12T05:56:11.434Z,102268.42
2019-02-12T05:58:38.335Z,102268.00
2019-02-12T06:01:05.279Z,102268.84
2019-02-12T06:03:32.179Z,102265.44
2019-02-12T06:05:59.146Z,102262.52
2019-02-12T06:08:26.049Z,102264.48
2019-02-12T06:10:52.992Z,102266.08
2019-02-12T06:13:19.913Z,102271.00
2019-02-12T06:15:46.851Z,102272.06
2019-02-12T06:18:13.741Z,102267.91
2019-02-12T06:20:40.666Z,102272.78
2019-02-12T06:23:07.571Z,102276.33
2019-02-12T06:25:34.589Z,102285.62
2019-02-12T06:28:01.502Z,102286.28
2019-02-12T06:30:28.470Z,102282.25
2019-02-12T06:32:55.404Z,102282.28
2019-02-12T06:35:22.359Z,102287.77
2019-02-12T06:37:49.289Z,102296.50
2019-02-12T06:40:16.612Z,102296.55
2019-02-12T06:42:43.561Z,102297.77
2019-02-12T06:45:10.514Z,102296.09
2019-02-12T06:47:37.429Z,102308.98
2019-02-12T06:50:05.587Z,102304.50
2019-02-12T06:52:32.501Z,102304.27
2019-02-12T06:54:59.500Z,102316.48
2019-02-12T06:57:26.425Z,102325.63
2019-02-12T06:59:53.317Z,102327.45
2019-02-12T07:02:57.150Z,102317.58
2019-02-12T07:05:24.150Z,102323.27
2019-02-12T07:08:31.977Z,102332.64
2019-02-12T07:11:04.107Z,102341.05
2019-02-12T07:13:59.132Z,102343.58
2019-02-12T07:17:03.456Z,102341.14
2019-02-12T07:20:21.647Z,102347.35
2019-02-12T07:23:06.323Z,102354.37
2019-02-12T07:26:15.315Z,102359.31
2019-02-12T07:29:18.167Z,102362.28
2019-02-12T07:32:29.144Z,102374.50
2019-02-12T07:35:51.969Z,102378.75
2019-02-12T07:38:48.542Z,102377.77
2019-02-12T07:41:56.322Z,102385.73
2019-02-12T07:45:11.189Z,102394.47
2019-02-12T07:48:23.167Z,102392.30
2019-02-12T07:51:21.767Z,102397.48
2019-02-12T07:54:44.762Z,102386.47
2019-02-12T07:57:49.256Z,102393.25
2019-02-12T08:00:42.465Z,102392.66
2019-02-12T08:03:55.877Z,102403.86
2019-02-12T08:06:40.461Z,102405.05
2019-02-12T08:09:43.984Z,102407.75
2019-02-12T08:12:36.043Z,102413.19
2019-02-12T08:15:53.039Z,102412.14
2019-02-12T08:18:52.293Z,102415.60
2019-02-12T08:22:10.224Z,102418.13
2019-02-12T08:25:08.969Z,102428.38
2019-02-12T08:27:56.968Z,102431.81
2019-02-12T08:30:49.576Z,102436.14
2019-02-12T08:34:10.662Z,102438.83
2019-02-12T08:37:21.274Z,102440.33
2019-02-12T08:40:17.891Z,102443.84
2019-02-12T08:43:09.627Z,102448.69
2019-02-12T08:46:10.967Z,102451.13
2019-02-12T08:49:10.637Z,102444.23
2019-02-12T08:52:24.290Z,102448.47
2019-02-12T08:55:12.768Z,102455.45
2019-02-12T08:58:08.147Z,102456.94
2019-02-12T09:01:14.670Z,102459.08
2019-02-12T09:04:25.899Z,102462.14
2019-02-12T09:07:30.934Z,102467.23
2019-02-12T09:10:55.131Z,102476.18
2019-02-12T09:13:46.717Z,102480.48
2019-02-12T09:16:55.667Z,102473.30
2019-02-12T09:19:45.955Z,102489.25
2019-02-12T09:23:02.617Z,102485.91
2019-02-12T09:26:17.585Z,102489.13
2019-02-12T09:29:29.253Z,102489.34
2019-02-12T09:32:43.003Z,102484.51
2019-02-12T09:35:26.349Z,102483.48
2019-02-12T09:38:53.311Z,102487.44
2019-02-12T09:41:31.237Z,102485.64
2019-02-12T09:44:39.115Z,102486.69
2019-02-12T09:47:26.643Z,102488.69
2019-02-12T09:50:38.584Z,102484.80
2019-02-12T09:53:23.996Z,102487.94
2019-02-12T09:56:39.239Z,102488.38
2019-02-12T09:59:38.271Z,102495.11
2019-02-12T10:03:01.288Z,102502.09
2019-02-12T10:06:09.877Z,102499.94
2019-02-12T10:09:15.842Z,102500.09
2019-02-12T10:12:19.446Z,102494.80
2019-02-12T10:15:37.545Z,102505.42
2019-02-12T10:18:42.340Z,102508.64
2019-02-12T10:22:09.640Z,102513.48
2019-02-12T10:25:12.725Z,102511.53
2019-02-12T10:28:24.892Z,102517.94
2019-02-12T10:31:25.311Z,102513.81
2019-02-12T10:33:52.303Z,102517.45
2019-02-12T10:36:19.218Z,102516.36
2019-02-12T10:38:46.136Z,102518.58
2019-02-12T10:41:13.095Z,102521.63
2019-02-12T10:43:40.044Z,102516.16
2019-02-12T10:46:07.032Z,102514.66
2019-02-12T10:48:33.950Z,102514.28
2019-02-12T10:51:00.886Z,102518.28
2019-02-12T10:53:27.816Z,102512.66
2019-02-12T10:55:54.743Z,102517.95
2019-02-12T10:58:21.652Z,102520.02
2019-02-12T11:00:49.413Z,102515.59
2019-02-12T11:03:16.370Z,102517.79
2019-02-12T11:05:43.547Z,102519.67
2019-02-12T11:08:10.468Z,102525.31
2019-02-12T11:10:37.428Z,102516.44
2019-02-12T11:13:04.464Z,102514.08
2019-02-12T11:15:31.503Z,102513.73
2019-02-12T11:17:58.409Z,102512.84
2019-02-12T11:20:25.358Z,102503.32
2019-02-12T11:22:52.280Z,102504.41
2019-02-12T11:25:19.226Z,102501.25
2019-02-12T11:27:46.175Z,102503.77
2019-02-12T11:30:13.719Z,102505.05
2019-02-12T11:32:40.650Z,102506.34
2019-02-12T11:35:07.821Z,102510.11
2019-02-12T11:37:34.761Z,102509.49
2019-02-12T11:40:01.700Z,102502.05
2019-02-12T11:42:28.609Z,102503.34
2019-02-12T11:44:55.510Z,102505.72
2019-02-12T11:47:22.564Z,102502.95
2019-02-12T11:49:49.730Z,102496.60
2019-02-12T11:52:16.697Z,102494.58
2019-02-12T11:54:44.025Z,102493.66
2019-02-12T11:57:11.057Z,102498.64
2019-02-12T11:59:37.957Z,102487.30
2019-02-12T12:02:04.906Z,102484.05
2019-02-12T12:04:31.846Z,102486.42
2019-02-12T12:06:58.830Z,102483.01
2019-02-12T12:09:25.757Z,102477.26
2019-02-12T12:11:52.723Z,102478.31
2019-02-12T12:14:19.693Z,102485.94
2019-02-12T12:16:46.754Z,102485.26
2019-02-12T12:19:13.684Z,102490.95
2019-02-12T12:21:40.672Z,102491.28
2019-02-12T12:24:07.602Z,102497.76
2019-02-12T12:26:34.602Z,102483.80
2019-02-12T12:29:01.525Z,102485.75
2019-02-12T12:31:28.465Z,102482.72
2019-02-12T12:33:55.377Z,102499.14
2019-02-12T12:36:22.338Z,102475.94
2019-02-12T12:38:49.346Z,102470.52
2019-02-12T12:41:16.286Z,102482.16
2019-02-12T12:43:43.212Z,102478.66
2019-02-12T12:46:10.156Z,102484.39
2019-02-12T12:48:37.257Z,102485.33
2019-02-12T12:51:04.388Z,102477.79
2019-02-12T12:53:31.389Z,102485.31
2019-02-12T12:55:58.351Z,102482.86
2019-02-12T12:58:25.567Z,102485.11
2019-02-12T13:00:52.558Z,102479.18
2019-02-12T13:03:19.551Z,102472.53
2019-02-12T13:05:46.599Z,102478.19
2019-02-12T13:08:13.629Z,102482.05
2019-02-12T13:10:41.153Z,102480.48
2019-02-12T13:13:08.321Z,102485.22
2019-02-12T13:15:35.240Z,102484.75
2019-02-12T13:18:02.304Z,102481.84
2019-02-12T13:20:29.394Z,102480.45
2019-02-12T13:22:56.693Z,102481.94
2019-02-12T13:25:23.665Z,102486.28
2019-02-12T13:27:50.649Z,102477.47
2019-02-12T13:30:17.616Z,102478.28
2019-02-12T13:32:44.685Z,102476.25
2019-02-12T13:35:12.136Z,102478.81
2019-02-12T13:37:43.581Z,102477.98
2019-02-12T13:40:10.733Z,102480.73
2019-02-12T13:42:37.793Z,102476.59
2019-02-12T13:45:06.775Z,102483.02
2019-02-12T13:47:33.786Z,102481.80
2019-02-12T13:50:00.986Z,102484.22
2019-02-12T13:52:28.006Z,102487.69
2019-02-12T13:54:55.313Z,102480.22
2019-02-12T13:57:22.931Z,102475.34
2019-02-12T13:59:49.892Z,102470.13
2019-02-12T14:02:16.865Z,102475.15
2019-02-12T14:04:43.828Z,102474.66
2019-02-12T14:07:11.852Z,102478.09
2019-02-12T14:09:39.229Z,102473.41
2019-02-12T14:12:06.220Z,102475.68
2019-02-12T14:14:33.225Z,102472.45
2019-02-12T14:17:00.240Z,102478.86
2019-02-12T14:19:27.207Z,102483.30
2019-02-12T14:21:54.552Z,102481.66
2019-02-12T14:24:21.510Z,102478.86
2019-02-12T14:26:48.442Z,102479.83
2019-02-12T14:29:15.456Z,102471.53
2019-02-12T14:31:52.998Z,102471.09
2019-02-12T14:34:17.155Z,102476.69
2019-02-12T14:36:44.076Z,102485.38
2019-02-12T14:39:11.041Z,102485.86
2019-02-12T14:41:37.962Z,102481.13
2019-02-12T14:44:04.907Z,102478.61
2019-02-12T14:46:31.860Z,102481.56
2019-02-12T14:48:59.057Z,102480.74
2019-02-12T14:51:25.987Z,102478.19
2019-02-12T14:53:52.959Z,102486.63
2019-02-12T14:56:19.888Z,102479.44
2019-02-12T14:58:47.273Z,102479.54
2019-02-12T15:01:14.172Z,102483.87
2019-02-12T15:03:41.128Z,102479.77
2019-02-12T15:06:08.068Z,102489.47
2019-02-12T15:08:35.057Z,102482.48
2019-02-12T15:11:02.153Z,102484.13
2019-02-12T15:13:29.203Z,102488.41
2019-02-12T15:15:56.141Z,102491.30
2019-02-12T15:18:23.113Z,102499.58
2019-02-12T15:20:50.087Z,102493.52
2019-02-12T15:23:17.178Z,102504.05
2019-02-12T15:25:44.125Z,102508.93
2019-02-12T15:28:11.079Z,102502.14
2019-02-12T15:30:38.323Z,102498.29
2019-02-12T15:33:05.342Z,102497.80
2019-02-12T15:35:32.696Z,102432.71
2019-02-12T15:37:59.684Z,102487.53
2019-02-12T15:40:26.662Z,102486.09
2019-02-12T15:42:53.561Z,102480.77
2019-02-12T15:45:20.620Z,102479.69
2019-02-12T15:47:47.566Z,102485.44
2019-02-12T15:50:14.589Z,102485.16
2019-02-12T15:52:41.524Z,102486.25
2019-02-12T15:55:12.038Z,102491.67
2019-02-12T15:57:40.527Z,102491.61
2019-02-12T16:00:11.004Z,102492.31
2019-02-12T16:02:37.940Z,102497.52
2019-02-12T16:05:08.400Z,102491.88
2019-02-12T16:07:36.766Z,102499.59
2019-02-12T16:10:04.985Z,102495.63
2019-02-12T16:12:32.880Z,102499.59
2019-02-12T16:15:01.596Z,102504.13
2019-02-12T16:17:28.935Z,102506.98
2019-02-12T16:19:55.974Z,102509.16
2019-02-12T16:22:23.418Z,102518.14
2019-02-12T16:24:50.493Z,102523.22
2019-02-12T16:27:17.515Z,102529.16
2019-02-12T16:29:44.647Z,102533.60
2019-02-12T16:32:14.446Z,102536.65
2019-02-12T16:34:41.662Z,102533.70
2019-02-12T16:37:08.608Z,102555.77
2019-02-12T16:39:35.937Z,102550.52
2019-02-12T16:42:02.881Z,102553.36
2019-02-12T16:44:29.947Z,102548.14
2019-02-12T16:46:56.970Z,102551.28
2019-02-12T16:49:23.923Z,102556.46
2019-02-12T16:51:51.167Z,102555.45
2019-02-12T16:54:18.124Z,102559.80
2019-02-12T16:56:45.193Z,102555.52
2019-02-12T16:59:12.124Z,102564.68
2019-02-12T17:01:39.083Z,102562.01
2019-02-12T17:04:05.995Z,102572.41
2019-02-12T17:06:33.026Z,102569.02
2019-02-12T17:09:00.089Z,102571.11
2019-02-12T17:11:27.266Z,102574.30
2019-02-12T17:13:54.292Z,102575.33
2019-02-12T17:16:21.423Z,102574.33
2019-02-12T17:18:48.341Z,102569.13
2019-02-12T17:21:15.319Z,102571.54
2019-02-12T17:23:42.241Z,102580.13
2019-02-12T17:26:16.295Z,102572.17
2019-02-12T17:28:38.190Z,102585.63
2019-02-12T17:31:05.419Z,102582.13
2019-02-12T17:33:32.417Z,102577.46
2019-02-12T17:35:59.387Z,102584.11
2019-02-12T17:38:26.318Z,102581.73
2019-02-12T17:40:53.354Z,102576.53
2019-02-12T17:43:20.248Z,102577.91
2019-02-12T17:45:47.197Z,102581.80
2019-02-12T17:48:14.159Z,102581.22
2019-02-12T17:50:41.839Z,102587.40
2019-02-12T17:53:08.911Z,102591.98
2019-02-12T17:55:37.665Z,102585.49
2019-02-12T17:58:04.631Z,102593.89
2019-02-12T18:00:34.313Z,102593.09
2019-02-12T18:03:01.314Z,102595.00
2019-02-12T18:05:28.249Z,102595.06
2019-02-12T18:07:55.194Z,102592.67
2019-02-12T18:10:22.118Z,102592.38
2019-02-12T18:12:49.121Z,102591.45
2019-02-12T18:15:16.438Z,102586.50
2019-02-12T18:17:43.607Z,102588.52
2019-02-12T18:20:11.096Z,102591.45
2019-02-12T18:22:38.135Z,102583.16
2019-02-12T18:25:06.378Z,102581.23
2019-02-12T18:27:33.452Z,102578.66
2019-02-12T18:30:00.404Z,102581.59
2019-02-12T18:32:27.417Z,102581.78
2019-02-12T18:34:54.703Z,102574.95
2019-02-12T18:37:21.790Z,102572.33
2019-02-12T18:39:48.736Z,102571.80
2019-02-12T18:42:15.721Z,102565.84
2019-02-12T18:44:42.770Z,102578.38
2019-02-12T18:47:09.733Z,102580.47
2019-02-12T18:49:36.876Z,102580.02
2019-02-12T18:52:03.955Z,102587.80
2019-02-12T18:54:30.878Z,102581.73
2019-02-12T18:56:57.879Z,102580.53
2019-02-12T18:59:24.842Z,102571.19
2019-02-12T19:01:52.083Z,102572.69
2019-02-12T19:04:19.309Z,102570.16
2019-02-12T19:06:46.266Z,102577.15
2019-02-12T19:09:14.146Z,102570.58
2019-02-12T19:11:52.615Z,102574.16
2019-02-12T19:14:10.013Z,102577.42
2019-02-12T19:16:36.957Z,102578.05
2019-02-12T19:19:03.899Z,102580.22
2019-02-12T19:21:30.822Z,102576.55
2019-02-12T19:23:57.779Z,102575.67
2019-02-12T19:26:24.770Z,102570.77
2019-02-12T19:28:51.714Z,102583.66
2019-02-12T19:31:18.673Z,102577.57
2019-02-12T19:33:45.842Z,102583.55
2019-02-12T19:36:12.983Z,102585.91
2019-02-12T19:38:39.940Z,102592.54
2019-02-12T19:41:06.970Z,102595.98
2019-02-12T19:43:34.050Z,102589.23
2019-02-12T19:46:00.968Z,102588.18
2019-02-12T19:48:27.963Z,102593.03
2019-02-12T19:50:54.907Z,102596.50
2019-02-12T19:53:21.840Z,102594.69
2019-02-12T19:55:48.776Z,102598.40
2019-02-12T19:58:15.710Z,102600.09
2019-02-12T20:00:42.610Z,102603.32
2019-02-12T20:03:09.584Z,102595.00
2019-02-12T20:05:36.596Z,102598.05
2019-02-12T20:08:03.533Z,102608.69
2019-02-12T20:10:30.459Z,102601.53
2019-02-12T20:12:57.404Z,102612.39
2019-02-12T20:15:24.310Z,102604.50
2019-02-12T20:17:51.227Z,102601.94
2019-02-12T20:20:18.190Z,102596.86
2019-02-12T20:22:45.087Z,102597.46
2019-02-12T20:25:12.014Z,102597.19
2019-02-12T20:27:38.952Z,102589.86
2019-02-12T20:30:07.888Z,102590.62
2019-02-12T20:32:34.808Z,102600.19
2019-02-12T20:35:01.750Z,102613.56
2019-02-12T20:37:28.678Z,102610.86
2019-02-12T20:39:55.602Z,102607.84
2019-02-12T20:42:22.520Z,102598.31
2019-02-12T20:44:49.467Z,102591.24
2019-02-12T20:47:16.373Z,102588.56
2019-02-12T20:49:43.318Z,102585.20
2019-02-12T20:52:10.215Z,102587.97
2019-02-12T20:54:37.206Z,102587.78
2019-02-12T20:57:04.128Z,102589.81
2019-02-12T20:59:31.232Z,102587.67
2019-02-12T21:01:58.154Z,102587.54
2019-02-12T21:04:25.085Z,102589.09
2019-02-12T21:06:51.987Z,102591.18
2019-02-12T21:09:18.962Z,102599.21
2019-02-12T21:11:45.864Z,102602.20
2019-02-12T21:14:12.859Z,102605.80
2019-02-12T21:16:39.765Z,102596.45
2019-02-12T21:19:06.705Z,102599.02
2019-02-12T21:21:33.619Z,102604.48
2019-02-12T21:24:00.571Z,102604.91
2019-02-12T21:26:27.517Z,102607.65
2019-02-12T21:28:54.521Z,102606.50
2019-02-12T21:31:21.449Z,102604.58
2019-02-12T21:33:48.392Z,102602.16
2019-02-12T21:36:15.413Z,102603.00
2019-02-12T21:38:42.378Z,102611.74
2019-02-12T21:41:10.989Z,102610.19
2019-02-12T21:43:38.432Z,102608.84
2019-02-12T21:46:05.414Z,102612.50
2019-02-12T21:48:32.350Z,102612.44
2019-02-12T21:50:59.343Z,102620.89
2019-02-12T21:53:26.258Z,102625.95
2019-02-12T21:55:53.201Z,102619.10
2019-02-12T21:58:20.095Z,102629.36
2019-02-12T22:00:47.036Z,102631.56
2019-02-12T22:03:13.950Z,102634.30
2019-02-12T22:05:41.760Z,102628.45
2019-02-12T22:08:08.698Z,102632.92
2019-02-12T22:10:35.680Z,102632.16
2019-02-12T22:13:02.654Z,102636.90
2019-02-12T22:15:29.600Z,102641.42
2019-02-12T22:17:56.571Z,102646.27
2019-02-12T22:20:23.538Z,102639.87
2019-02-12T22:22:50.460Z,102635.16
2019-02-12T22:25:17.409Z,102641.59
2019-02-12T22:27:44.429Z,102623.96
2019-02-12T22:30:13.552Z,102625.53
2019-02-12T22:32:40.465Z,102632.63
2019-02-12T22:35:07.377Z,102631.69
2019-02-12T22:37:34.395Z,102644.66
2019-02-12T22:40:01.301Z,102644.72
2019-02-12T22:42:28.272Z,102643.59
2019-02-12T22:44:55.161Z,102646.81
2019-02-12T22:47:22.105Z,102644.91
2019-02-12T22:49:49.018Z,102645.20
2019-02-12T22:52:16.003Z,102638.45
2019-02-12T22:54:42.910Z,102640.52
2019-02-12T22:57:09.876Z,102641.22
2019-02-12T22:59:36.808Z,102643.53
2019-02-12T23:02:04.332Z,102647.53
2019-02-12T23:04:31.254Z,102646.07
2019-02-12T23:06:58.210Z,102642.16
2019-02-12T23:09:25.128Z,102647.11
2019-02-12T23:11:52.073Z,102652.09
2019-02-12T23:14:19.007Z,102647.96
2019-02-12T23:16:46.041Z,102654.03
2019-02-12T23:19:12.975Z,102651.27
2019-02-12T23:21:40.065Z,102662.66
2019-02-12T23:24:06.998Z,102668.25
2019-02-12T23:26:33.920Z,102663.53
2019-02-12T23:29:00.849Z,102670.02
2019-02-12T23:31:27.793Z,102666.30
2019-02-12T23:33:54.692Z,102660.77
2019-02-12T23:36:21.654Z,102660.41
2019-02-12T23:38:48.562Z,102658.52
2019-02-12T23:41:15.578Z,102655.86
2019-02-12T23:43:42.500Z,102651.42
2019-02-12T23:46:09.443Z,102646.40
2019-02-12T23:48:36.351Z,102641.13
2019-02-12T23:51:03.318Z,102643.83
2019-02-12T23:53:30.208Z,102649.95
2019-02-12T23:55:57.134Z,102660.15
2019-02-12T23:58:24.081Z,102663.53
